KAVX/AVX METAR and TAF weather

Enter ICAO airport designator
Station Type Date Time Source
KAVX METAR 2018/12/13 15:51 UTC NOAA

KAVX 131551Z AUTO 05007KT 10SM CLR 18/00 A3024 RMK AO2 SLP231 T01780000 $


Station Type Date Time Source
KAVX Decoded METAR 2018/12/13 15:51 UTC NOAA

AVALON CATALINA AIRPORT, CA, United States (KAVX) 33-24N 118-25W 482M
Dec 13, 2018 - 10:51 AM EST / 2018.12.13 1551 UTC
Wind: from the NE (050 degrees) at 8 MPH (7 KT):0
Visibility: 10 mile(s):0
Sky conditions: clear
Temperature: 64.0 F (17.8 C)
Dew Point: 32.0 F (0.0 C)
Relative Humidity: 29%
Pressure (altimeter): 30.24 in. Hg (1024 hPa)
ob: KAVX 131551Z AUTO 05007KT 10SM CLR 18/00 A3024 RMK AO2 SLP231 T01780000
cycle: 16

Station Type Date Time Source
KAVX TAF UTC NOAA

Error!


Example: see airport list